createdAt,value
2023-05-16T00:02:07.327Z,96394.09
2023-05-16T00:07:28.296Z,96385.94
2023-05-16T00:12:51.924Z,96386.66
2023-05-16T00:18:16.186Z,96386.66
2023-05-16T00:23:36.950Z,96388.72
2023-05-16T00:28:57.945Z,96385.56
2023-05-16T00:34:21.414Z,96379.84
2023-05-16T00:39:42.509Z,96375.66
2023-05-16T00:45:04.065Z,96379.06
2023-05-16T00:50:25.159Z,96376.63
2023-05-16T00:55:48.009Z,96378.78
2023-05-16T01:01:09.298Z,96380.41
2023-05-16T01:06:30.441Z,96386.13
2023-05-16T01:12:02.276Z,96372.13
2023-05-16T01:17:41.551Z,96376.56
2023-05-16T01:23:30.135Z,96376.06
2023-05-16T01:28:52.592Z,96378.66
2023-05-16T01:34:13.948Z,96383.91
2023-05-16T01:39:42.530Z,96381.00
2023-05-16T01:45:32.865Z,96394.91
2023-05-16T01:50:57.654Z,96406.22
2023-05-16T01:56:18.824Z,96407.50
2023-05-16T02:01:39.882Z,96406.22
2023-05-16T02:07:01.977Z,96401.25
2023-05-16T02:12:22.994Z,96397.06
2023-05-16T02:17:43.901Z,96396.22
2023-05-16T02:23:04.568Z,96390.44
2023-05-16T02:28:26.554Z,96388.00
2023-05-16T02:33:47.358Z,96391.88
2023-05-16T02:39:10.327Z,96389.00
2023-05-16T02:44:31.363Z,96398.91
2023-05-16T02:49:53.386Z,96407.41
2023-05-16T02:55:21.663Z,96403.69
2023-05-16T03:00:43.677Z,96403.31
2023-05-16T03:06:04.766Z,96415.84
2023-05-16T03:11:29.095Z,96418.50
2023-05-16T03:16:50.100Z,96417.31
2023-05-16T03:22:11.085Z,96429.75
2023-05-16T03:27:31.998Z,96427.59
2023-05-16T03:32:53.130Z,96432.81
2023-05-16T03:38:14.437Z,96437.34
2023-05-16T03:43:38.028Z,96453.44
2023-05-16T03:48:59.096Z,96465.97
2023-05-16T03:54:19.888Z,96469.69
2023-05-16T03:59:40.700Z,96470.28
2023-05-16T04:05:01.660Z,96473.88
2023-05-16T04:10:22.777Z,96461.72
2023-05-16T04:15:43.674Z,96465.88
2023-05-16T04:21:04.859Z,96471.78
2023-05-16T04:26:25.809Z,96465.59
2023-05-16T04:31:46.844Z,96461.16
2023-05-16T04:37:08.663Z,96471.59
2023-05-16T04:42:29.871Z,96478.47
2023-05-16T04:47:51.598Z,96475.97
2023-05-16T04:53:12.522Z,96477.09
2023-05-16T04:58:33.165Z,96469.50
2023-05-16T05:03:55.298Z,96463.34
2023-05-16T05:09:17.974Z,96471.94
2023-05-16T05:14:38.695Z,96464.84
2023-05-16T05:20:02.468Z,96457.78
2023-05-16T05:25:24.142Z,96463.66
2023-05-16T05:30:44.993Z,96457.97
2023-05-16T05:36:06.238Z,96452.97
2023-05-16T05:41:27.899Z,96455.25
2023-05-16T05:46:49.075Z,96458.47
2023-05-16T05:52:10.158Z,96460.91
2023-05-16T05:57:31.579Z,96456.72
2023-05-16T06:02:52.639Z,96456.13
2023-05-16T06:08:13.742Z,96459.00
2023-05-16T06:13:34.679Z,96461.63
2023-05-16T06:18:57.642Z,96456.50
2023-05-16T06:24:20.122Z,96472.03
2023-05-16T06:29:41.066Z,96464.31
2023-05-16T06:35:02.198Z,96468.78
2023-05-16T06:40:22.909Z,96467.31
2023-05-16T06:45:46.719Z,96463.81
2023-05-16T06:51:08.077Z,96473.88
2023-05-16T06:56:29.097Z,96481.38
2023-05-16T07:01:50.231Z,96476.34
2023-05-16T07:07:11.524Z,96471.19
2023-05-16T07:12:32.518Z,96470.63
2023-05-16T07:17:53.393Z,96472.09
2023-05-16T07:23:14.479Z,96449.44
2023-05-16T07:28:35.616Z,96475.25
2023-05-16T07:33:56.408Z,96486.25
2023-05-16T07:39:17.425Z,96484.81
2023-05-16T07:44:38.296Z,96483.38
2023-05-16T07:49:59.284Z,96504.09
2023-05-16T07:55:20.165Z,96498.00
2023-05-16T08:00:41.271Z,96511.66
2023-05-16T08:06:02.125Z,96513.06
2023-05-16T08:11:23.545Z,96514.59
2023-05-16T08:16:44.970Z,96520.38
2023-05-16T08:22:09.180Z,96519.88
2023-05-16T08:27:30.283Z,96541.91
2023-05-16T08:32:50.924Z,96540.22
2023-05-16T08:38:12.398Z,96545.75
2023-05-16T08:43:35.195Z,96550.50
2023-05-16T08:48:59.974Z,96537.78
2023-05-16T08:54:23.006Z,96545.13
2023-05-16T08:59:45.209Z,96550.19
2023-05-16T09:05:08.826Z,96553.13
2023-05-16T09:10:29.920Z,96551.34
2023-05-16T09:16:12.631Z,96552.81
2023-05-16T09:21:36.040Z,96548.88
2023-05-16T09:26:57.022Z,96557.28
2023-05-16T09:32:18.730Z,96564.31
2023-05-16T09:37:44.839Z,96555.81
2023-05-16T09:43:08.484Z,96557.25
2023-05-16T09:48:29.799Z,96551.44
2023-05-16T09:53:50.913Z,96560.09
2023-05-16T09:59:11.905Z,96559.63
2023-05-16T10:04:33.669Z,96548.66
2023-05-16T10:09:56.094Z,96536.06
2023-05-16T10:15:17.749Z,96532.88
2023-05-16T10:20:41.714Z,96538.16
2023-05-16T10:26:06.175Z,96518.56
2023-05-16T10:31:29.451Z,96525.44
2023-05-16T10:36:51.023Z,96530.97
2023-05-16T10:42:14.601Z,96517.16
2023-05-16T10:47:35.860Z,96512.47
2023-05-16T10:52:57.327Z,96489.28
2023-05-16T10:58:25.555Z,96481.19
2023-05-16T11:04:04.846Z,96499.56
2023-05-16T11:09:28.045Z,96484.69
2023-05-16T11:14:52.131Z,96482.78
2023-05-16T11:20:32.667Z,96492.00
2023-05-16T11:26:01.395Z,96490.59
2023-05-16T11:31:25.019Z,96499.28
2023-05-16T11:36:46.514Z,96533.41
2023-05-16T11:42:07.497Z,96531.31
2023-05-16T11:47:29.947Z,96545.38
2023-05-16T11:52:57.271Z,96555.88
2023-05-16T11:58:20.156Z,96569.31
2023-05-16T12:03:41.508Z,96583.66
2023-05-16T12:09:10.079Z,96574.56
2023-05-16T12:14:31.008Z,96593.09
2023-05-16T12:19:52.471Z,96591.66
2023-05-16T12:25:33.112Z,96581.56
2023-05-16T12:30:54.018Z,96599.09
2023-05-16T12:36:15.683Z,96574.94
2023-05-16T12:41:42.437Z,96576.81
2023-05-16T12:47:03.510Z,96570.09
2023-05-16T12:52:24.645Z,96571.25
2023-05-16T12:57:50.434Z,96552.44
2023-05-16T13:03:12.291Z,96559.69
2023-05-16T13:08:33.934Z,96560.13
2023-05-16T13:13:54.979Z,96572.31
2023-05-16T13:19:16.509Z,96572.00
2023-05-16T13:24:38.467Z,96568.06
2023-05-16T13:30:00.019Z,96575.22
2023-05-16T13:35:21.806Z,96591.47
2023-05-16T13:40:42.987Z,96594.94
2023-05-16T13:46:04.127Z,96593.50
2023-05-16T13:51:25.547Z,96608.41
2023-05-16T13:56:46.811Z,96598.91
2023-05-16T14:02:07.857Z,96583.69
2023-05-16T14:07:28.516Z,96593.13
2023-05-16T14:12:49.420Z,96590.31
2023-05-16T14:18:10.383Z,96583.59
2023-05-16T14:23:31.832Z,96580.66
2023-05-16T14:28:53.211Z,96586.31
2023-05-16T14:34:14.123Z,96598.19
2023-05-16T14:39:35.195Z,96603.84
2023-05-16T14:44:56.378Z,96626.19
2023-05-16T14:50:17.349Z,96618.28
2023-05-16T14:55:39.032Z,96630.16
2023-05-16T15:00:59.883Z,96624.59
2023-05-16T15:06:20.671Z,96631.63
2023-05-16T15:11:41.872Z,96634.19
2023-05-16T15:17:05.409Z,96647.56
2023-05-16T15:22:30.072Z,96647.31
2023-05-16T15:27:51.818Z,96655.69
2023-05-16T15:33:13.756Z,96659.31
2023-05-16T15:38:35.454Z,96652.53
2023-05-16T15:43:56.682Z,96662.09
2023-05-16T15:49:17.575Z,96669.44
2023-05-16T15:54:38.403Z,96679.97
2023-05-16T15:59:59.202Z,96677.19
2023-05-16T16:05:21.633Z,96687.41
2023-05-16T16:10:42.365Z,96687.88
2023-05-16T16:16:03.437Z,96677.78
2023-05-16T16:21:24.383Z,96681.50
2023-05-16T16:26:45.246Z,96686.28
2023-05-16T16:32:06.716Z,96679.84
2023-05-16T16:37:27.886Z,96682.91
2023-05-16T16:42:50.898Z,96668.94
2023-05-16T16:48:12.313Z,96689.97
2023-05-16T16:53:35.309Z,96687.22
2023-05-16T16:58:56.616Z,96691.47
2023-05-16T17:04:19.614Z,96702.94
2023-05-16T17:09:43.118Z,96706.94
2023-05-16T17:15:06.757Z,96709.16
2023-05-16T17:20:27.903Z,96727.25
2023-05-16T17:25:48.769Z,96727.81
2023-05-16T17:31:09.677Z,96726.84
2023-05-16T17:36:31.123Z,96722.97
2023-05-16T17:41:57.876Z,96726.41
2023-05-16T17:47:19.800Z,96739.91
2023-05-16T17:52:40.818Z,96742.13
2023-05-16T17:58:01.733Z,96752.47
2023-05-16T18:03:22.906Z,96763.75
2023-05-16T18:08:45.725Z,96762.53
2023-05-16T18:14:09.365Z,96764.06
2023-05-16T18:19:31.866Z,96764.72
2023-05-16T18:24:54.670Z,96773.66
2023-05-16T18:30:16.488Z,96771.59
2023-05-16T18:35:37.346Z,96782.00
2023-05-16T18:40:58.526Z,96789.56
2023-05-16T18:46:19.486Z,96789.03
2023-05-16T18:51:40.898Z,96788.31
2023-05-16T18:57:05.483Z,96787.91
2023-05-16T19:02:37.882Z,96796.97
2023-05-16T19:08:03.116Z,96798.25
2023-05-16T19:13:30.897Z,96796.44
2023-05-16T19:18:52.230Z,96797.00
2023-05-16T19:24:13.147Z,96798.94
2023-05-16T19:29:33.983Z,96799.31
2023-05-16T19:34:55.282Z,96796.16
2023-05-16T19:40:19.604Z,96815.00
2023-05-16T19:45:40.486Z,96819.38
2023-05-16T19:51:01.595Z,96822.41
2023-05-16T19:56:23.315Z,96829.25
2023-05-16T20:01:44.492Z,96832.13
2023-05-16T20:07:07.641Z,96833.09
2023-05-16T20:12:28.715Z,96835.28
2023-05-16T20:17:49.686Z,96832.66
2023-05-16T20:23:10.500Z,96834.97
2023-05-16T20:28:31.959Z,96838.00
2023-05-16T20:33:52.776Z,96838.72
2023-05-16T20:39:13.850Z,96835.56
2023-05-16T20:44:35.118Z,96840.66
2023-05-16T20:49:57.391Z,96841.06
2023-05-16T20:55:19.040Z,96840.63
2023-05-16T21:00:40.007Z,96832.78
2023-05-16T21:06:04.193Z,96830.59
2023-05-16T21:11:28.141Z,96827.56
2023-05-16T21:16:49.186Z,96839.22
2023-05-16T21:22:11.387Z,96850.22
2023-05-16T21:27:33.154Z,96849.50
2023-05-16T21:32:54.069Z,96854.19
2023-05-16T21:38:17.786Z,96850.03
2023-05-16T21:43:38.922Z,96854.44
2023-05-16T21:49:00.149Z,96849.22
2023-05-16T21:54:21.202Z,96853.59
2023-05-16T21:59:42.136Z,96864.19
2023-05-16T22:05:03.542Z,96859.69
2023-05-16T22:10:24.844Z,96862.81
2023-05-16T22:15:52.096Z,96872.97
2023-05-16T22:21:17.220Z,96869.66
2023-05-16T22:26:38.436Z,96872.00
2023-05-16T22:31:59.469Z,96869.69
2023-05-16T22:37:21.175Z,96867.50
2023-05-16T22:42:42.342Z,96868.31
2023-05-16T22:48:03.201Z,96871.28
2023-05-16T22:53:24.120Z,96860.31
2023-05-16T22:58:44.817Z,96865.38
2023-05-16T23:04:06.203Z,96873.63
2023-05-16T23:09:27.215Z,96870.88
2023-05-16T23:14:48.280Z,96881.31
2023-05-16T23:20:09.580Z,96882.28
2023-05-16T23:25:30.685Z,96885.97
2023-05-16T23:30:51.915Z,96875.69
2023-05-16T23:36:12.765Z,96881.28
2023-05-16T23:41:33.875Z,96885.69
2023-05-16T23:46:54.971Z,96894.06
2023-05-16T23:52:15.813Z,96885.53
2023-05-16T23:57:36.559Z,96890.38
